createdAt,value
2022-08-21T00:00:26.347Z,84.80
2022-08-21T00:01:31.622Z,84.95
2022-08-21T00:02:34.125Z,85.11
2022-08-21T00:03:36.749Z,85.26
2022-08-21T00:04:39.383Z,85.15
2022-08-21T00:05:47.084Z,85.16
2022-08-21T00:06:51.170Z,85.28
2022-08-21T00:07:54.236Z,85.70
2022-08-21T00:08:56.505Z,86.19
2022-08-21T00:09:59.078Z,86.18
2022-08-21T00:11:02.244Z,86.02
2022-08-21T00:12:07.755Z,85.85
2022-08-21T00:13:10.566Z,85.65
2022-08-21T00:14:14.248Z,85.50
2022-08-21T00:15:19.816Z,85.41
2022-08-21T00:16:23.430Z,85.52
2022-08-21T00:17:26.053Z,85.39
2022-08-21T00:18:28.456Z,85.28
2022-08-21T00:19:31.669Z,85.77
2022-08-21T00:20:35.274Z,85.65
2022-08-21T00:21:39.288Z,85.66
2022-08-21T00:22:41.440Z,85.72
2022-08-21T00:23:43.901Z,85.71
2022-08-21T00:24:46.123Z,85.49
2022-08-21T00:25:49.188Z,85.75
2022-08-21T00:26:52.000Z,85.73
2022-08-21T00:27:56.122Z,85.71
2022-08-21T00:28:58.928Z,85.32
2022-08-21T00:30:01.358Z,85.57
2022-08-21T00:31:03.917Z,85.74
2022-08-21T00:32:06.183Z,85.65
2022-08-21T00:33:10.584Z,85.45
2022-08-21T00:34:13.637Z,85.41
2022-08-21T00:35:19.318Z,85.22
2022-08-21T00:36:23.416Z,85.33
2022-08-21T00:37:25.669Z,85.45
2022-08-21T00:38:28.018Z,85.40
2022-08-21T00:39:30.201Z,85.53
2022-08-21T00:40:42.308Z,86.16
2022-08-21T00:41:44.655Z,86.22
2022-08-21T00:42:59.231Z,86.12
2022-08-21T00:43:50.936Z,86.14
2022-08-21T00:44:53.189Z,86.30
2022-08-21T00:45:56.375Z,86.07
2022-08-21T00:46:59.834Z,85.99
2022-08-21T00:48:02.716Z,85.88
2022-08-21T00:49:06.986Z,85.85
2022-08-21T00:50:15.060Z,86.00
2022-08-21T00:51:28.947Z,85.61
2022-08-21T00:52:33.994Z,86.27
2022-08-21T00:53:39.534Z,86.40
2022-08-21T00:54:44.115Z,85.90
2022-08-21T00:55:47.596Z,85.74
2022-08-21T00:56:54.474Z,85.96
2022-08-21T00:58:01.038Z,85.98
2022-08-21T00:59:05.236Z,85.68
2022-08-21T01:00:12.011Z,85.91
2022-08-21T01:01:14.537Z,85.78
2022-08-21T01:02:18.253Z,85.42
2022-08-21T01:03:23.971Z,85.12
2022-08-21T01:04:27.190Z,85.24
2022-08-21T01:05:29.852Z,85.23
2022-08-21T01:06:33.447Z,85.54
2022-08-21T01:07:36.017Z,85.43
2022-08-21T01:08:38.971Z,85.39
2022-08-21T01:09:44.529Z,85.19
2022-08-21T01:10:47.489Z,85.17
2022-08-21T01:11:52.019Z,85.14
2022-08-21T01:12:57.407Z,85.19
2022-08-21T01:13:59.919Z,85.03
2022-08-21T01:15:06.035Z,84.60
2022-08-21T01:16:10.580Z,84.42
2022-08-21T01:17:16.127Z,84.33
2022-08-21T01:18:19.192Z,84.11
2022-08-21T01:19:22.477Z,84.53
2022-08-21T01:20:32.852Z,84.59
2022-08-21T01:21:31.196Z,84.47
2022-08-21T01:22:34.992Z,84.26
2022-08-21T01:23:39.859Z,84.13
2022-08-21T01:24:42.066Z,83.95
2022-08-21T01:25:44.131Z,84.00
2022-08-21T01:26:48.300Z,84.11
2022-08-21T01:27:51.000Z,84.22
2022-08-21T01:28:59.852Z,84.04
2022-08-21T01:30:06.564Z,84.16
2022-08-21T01:31:12.534Z,83.95
2022-08-21T01:32:17.654Z,83.87
2022-08-21T01:33:24.113Z,83.87
2022-08-21T01:34:26.476Z,83.78
2022-08-21T01:35:28.517Z,83.52
2022-08-21T01:36:33.386Z,83.51
2022-08-21T01:37:35.804Z,83.13
2022-08-21T01:38:38.788Z,83.08
2022-08-21T01:39:42.170Z,82.93
2022-08-21T01:40:45.756Z,82.78
2022-08-21T01:41:47.915Z,82.69
2022-08-21T01:42:50.394Z,82.55
2022-08-21T01:43:52.849Z,82.56
2022-08-21T01:44:56.258Z,82.48
2022-08-21T01:45:58.689Z,82.41
2022-08-21T01:47:03.747Z,82.04
2022-08-21T01:48:06.590Z,81.81
2022-08-21T01:49:08.962Z,81.79
2022-08-21T01:50:15.978Z,81.95
2022-08-21T01:51:18.606Z,81.67
2022-08-21T01:52:20.965Z,81.43
2022-08-21T01:53:33.100Z,81.45
2022-08-21T01:54:27.838Z,81.45
2022-08-21T01:55:30.284Z,81.37
2022-08-21T01:56:39.490Z,81.39
2022-08-21T01:57:42.032Z,81.30
2022-08-21T01:58:47.068Z,81.18
2022-08-21T01:59:49.813Z,81.13
2022-08-21T02:00:52.089Z,81.00
2022-08-21T02:01:55.741Z,80.88
2022-08-21T02:02:59.764Z,80.74
2022-08-21T02:04:03.308Z,80.53
2022-08-21T02:05:06.665Z,80.50
2022-08-21T02:06:15.573Z,80.33
2022-08-21T02:07:17.994Z,80.35
2022-08-21T02:08:20.039Z,80.21
2022-08-21T02:09:23.023Z,80.31
2022-08-21T02:10:30.261Z,80.50
2022-08-21T02:11:33.086Z,80.54
2022-08-21T02:12:35.519Z,80.48
2022-08-21T02:13:38.661Z,80.31
2022-08-21T02:14:41.384Z,80.31
2022-08-21T02:15:43.999Z,79.96
2022-08-21T02:16:46.524Z,79.72
2022-08-21T02:17:53.590Z,79.25
2022-08-21T02:18:55.853Z,79.16
2022-08-21T02:19:57.875Z,79.47
2022-08-21T02:21:00.247Z,79.37
2022-08-21T02:22:02.432Z,79.16
2022-08-21T02:23:07.367Z,79.09
2022-08-21T02:24:10.429Z,79.01
2022-08-21T02:25:13.071Z,79.32
2022-08-21T02:26:15.562Z,79.93
2022-08-21T02:27:17.819Z,80.68
2022-08-21T02:28:21.925Z,81.31
2022-08-21T02:29:24.175Z,81.53
2022-08-21T02:30:31.955Z,81.46
2022-08-21T02:31:34.737Z,81.61
2022-08-21T02:32:37.105Z,81.54
2022-08-21T02:33:39.861Z,81.63
2022-08-21T02:34:42.241Z,81.94
2022-08-21T02:35:47.280Z,81.85
2022-08-21T02:36:59.593Z,81.84
2022-08-21T02:37:58.371Z,81.91
2022-08-21T02:39:00.953Z,81.97
2022-08-21T02:40:04.038Z,82.07
2022-08-21T02:41:09.620Z,82.26
2022-08-21T02:42:11.801Z,82.27
2022-08-21T02:43:15.482Z,82.20
2022-08-21T02:44:17.769Z,82.31
2022-08-21T02:45:20.654Z,82.08
2022-08-21T02:46:25.328Z,82.13
2022-08-21T02:47:28.094Z,82.06
2022-08-21T02:48:33.205Z,82.04
2022-08-21T02:49:35.391Z,82.00
2022-08-21T02:50:42.774Z,82.05
2022-08-21T02:51:45.422Z,81.87
2022-08-21T02:52:48.090Z,81.79
2022-08-21T02:53:52.195Z,82.19
2022-08-21T02:54:54.456Z,82.07
2022-08-21T02:55:58.802Z,82.04
2022-08-21T02:57:02.402Z,81.96
2022-08-21T02:58:07.693Z,82.11
2022-08-21T02:59:12.614Z,82.68
2022-08-21T03:00:17.015Z,83.12
2022-08-21T03:01:20.860Z,83.26
2022-08-21T03:02:23.077Z,83.39
2022-08-21T03:03:28.803Z,83.45
2022-08-21T03:04:31.000Z,84.06
2022-08-21T03:05:36.718Z,84.02
2022-08-21T03:06:41.189Z,83.58
2022-08-21T03:07:46.454Z,83.24
2022-08-21T03:08:48.682Z,83.13
2022-08-21T03:09:55.732Z,83.01
2022-08-21T03:10:55.706Z,82.75
2022-08-21T03:11:57.863Z,82.85
2022-08-21T03:13:00.441Z,82.96
2022-08-21T03:14:02.521Z,82.52
2022-08-21T03:15:10.556Z,82.25
2022-08-21T03:16:16.118Z,82.29
2022-08-21T03:17:18.875Z,82.61
2022-08-21T03:18:23.375Z,82.91
2022-08-21T03:19:25.548Z,83.03
2022-08-21T03:20:29.417Z,83.34
2022-08-21T03:21:31.804Z,82.89
2022-08-21T03:22:34.788Z,83.06
2022-08-21T03:23:38.372Z,81.96
2022-08-21T03:24:40.730Z,82.07
2022-08-21T03:25:46.058Z,82.07
2022-08-21T03:26:48.537Z,81.58
2022-08-21T03:27:58.725Z,81.77
2022-08-21T03:28:57.956Z,81.63
2022-08-21T03:30:01.277Z,81.84
2022-08-21T03:31:03.718Z,81.93
2022-08-21T03:32:06.301Z,81.33
2022-08-21T03:33:08.538Z,81.79
2022-08-21T03:34:11.246Z,80.78
2022-08-21T03:35:16.631Z,81.31
2022-08-21T03:36:19.210Z,80.81
2022-08-21T03:37:21.493Z,80.53
2022-08-21T03:38:26.662Z,79.77
2022-08-21T03:39:28.141Z,79.51
2022-08-21T03:40:31.874Z,79.53
2022-08-21T03:41:35.115Z,79.50
2022-08-21T03:42:38.865Z,79.32
2022-08-21T03:43:41.250Z,78.91
2022-08-21T03:44:43.726Z,79.18
2022-08-21T03:45:45.948Z,79.67
2022-08-21T03:46:48.306Z,79.35
2022-08-21T03:47:57.020Z,79.33
2022-08-21T03:49:00.086Z,79.38
2022-08-21T03:50:04.657Z,80.09
2022-08-21T03:51:07.374Z,80.47
2022-08-21T03:52:09.582Z,80.78
2022-08-21T03:53:16.883Z,81.04
2022-08-21T03:54:17.704Z,81.16
2022-08-21T03:55:20.122Z,81.32
2022-08-21T03:56:24.776Z,81.35
2022-08-21T03:57:26.998Z,81.33
2022-08-21T03:58:29.910Z,81.48
2022-08-21T03:59:32.059Z,81.03
2022-08-21T04:00:35.615Z,80.78
2022-08-21T04:01:38.612Z,80.72
2022-08-21T04:02:42.516Z,80.82
2022-08-21T04:03:44.783Z,80.16
2022-08-21T04:04:47.022Z,80.28
2022-08-21T04:05:49.110Z,80.81
2022-08-21T04:06:52.082Z,80.81
2022-08-21T04:08:00.159Z,80.96
2022-08-21T04:09:02.554Z,81.03
2022-08-21T04:10:07.207Z,80.39
2022-08-21T04:11:09.906Z,80.61
2022-08-21T04:12:11.984Z,80.62
2022-08-21T04:13:14.232Z,80.90
2022-08-21T04:14:17.074Z,80.95
2022-08-21T04:15:21.677Z,80.59
2022-08-21T04:16:25.629Z,80.64
2022-08-21T04:17:27.828Z,80.87
2022-08-21T04:18:30.454Z,80.92
2022-08-21T04:19:32.612Z,81.04
2022-08-21T04:20:35.606Z,81.16
2022-08-21T04:21:38.144Z,81.16
2022-08-21T04:22:41.378Z,80.84
2022-08-21T04:23:43.492Z,80.74
2022-08-21T04:24:45.752Z,80.74
2022-08-21T04:25:48.418Z,80.54
2022-08-21T04:26:50.949Z,80.40
2022-08-21T04:27:53.308Z,79.88
2022-08-21T04:28:56.117Z,80.33
2022-08-21T04:29:58.263Z,80.28
2022-08-21T04:31:01.362Z,80.13
2022-08-21T04:32:03.888Z,79.80
2022-08-21T04:33:06.389Z,80.19
2022-08-21T04:34:08.470Z,79.96
2022-08-21T04:35:12.669Z,79.89
2022-08-21T04:36:15.286Z,80.08
2022-08-21T04:37:17.580Z,79.88
2022-08-21T04:38:20.604Z,79.76
2022-08-21T04:39:23.109Z,80.21
2022-08-21T04:40:28.573Z,79.47
2022-08-21T04:41:31.114Z,79.59
2022-08-21T04:42:33.178Z,79.06
2022-08-21T04:43:36.147Z,79.46
2022-08-21T04:44:38.304Z,79.66
2022-08-21T04:45:44.613Z,80.22
2022-08-21T04:46:47.804Z,80.31
2022-08-21T04:47:55.980Z,79.85
2022-08-21T04:48:58.201Z,79.94
2022-08-21T04:50:00.244Z,79.77
2022-08-21T04:51:21.358Z,79.56
2022-08-21T04:52:25.258Z,79.33
2022-08-21T04:53:34.149Z,79.18
2022-08-21T04:54:37.377Z,79.22
2022-08-21T04:55:41.558Z,78.97
2022-08-21T04:56:59.388Z,78.87
2022-08-21T04:58:02.151Z,78.33
2022-08-21T04:59:07.853Z,77.52
2022-08-21T05:00:14.267Z,76.83
2022-08-21T05:01:21.746Z,76.11
2022-08-21T05:02:23.956Z,76.11
2022-08-21T05:03:27.040Z,76.25
2022-08-21T05:04:32.500Z,76.39
2022-08-21T05:05:35.223Z,75.79
2022-08-21T05:06:41.938Z,75.65
2022-08-21T05:07:45.757Z,74.88
2022-08-21T05:08:50.955Z,75.05
2022-08-21T05:09:55.224Z,75.22
2022-08-21T05:11:00.478Z,75.26
2022-08-21T05:12:03.138Z,75.61
2022-08-21T05:13:07.263Z,75.08
2022-08-21T05:14:10.521Z,74.72
2022-08-21T05:15:13.930Z,74.60
2022-08-21T05:16:17.379Z,74.00
2022-08-21T05:17:21.440Z,73.81
2022-08-21T05:18:23.986Z,73.78
2022-08-21T05:19:27.060Z,74.22
2022-08-21T05:20:29.646Z,75.23
2022-08-21T05:21:31.908Z,75.46
2022-08-21T05:22:37.330Z,75.18
2022-08-21T05:23:40.136Z,74.30
2022-08-21T05:24:42.216Z,73.62
2022-08-21T05:25:44.341Z,74.16
2022-08-21T05:26:47.036Z,73.72
2022-08-21T05:27:52.390Z,74.32
2022-08-21T05:28:54.917Z,74.05
2022-08-21T05:29:59.398Z,74.08
2022-08-21T05:31:02.073Z,74.75
2022-08-21T05:32:13.140Z,75.35
2022-08-21T05:33:15.582Z,75.34
2022-08-21T05:34:23.078Z,74.25
2022-08-21T05:35:26.825Z,74.77
2022-08-21T05:36:30.066Z,74.91
2022-08-21T05:37:32.726Z,73.72
2022-08-21T05:38:35.192Z,74.02
2022-08-21T05:40:20.718Z,73.51
2022-08-21T05:40:42.657Z,73.37
2022-08-21T05:41:44.970Z,73.92
2022-08-21T05:42:54.603Z,73.74
2022-08-21T05:43:51.726Z,73.11
2022-08-21T05:44:54.082Z,74.41
2022-08-21T05:45:56.262Z,73.39
2022-08-21T05:47:06.771Z,73.01
2022-08-21T05:49:21.773Z,72.35
2022-08-21T05:50:25.242Z,73.53
2022-08-21T05:51:29.447Z,73.25
2022-08-21T05:52:32.532Z,72.56
2022-08-21T05:53:36.271Z,72.36
2022-08-21T05:54:39.143Z,71.76
2022-08-21T05:55:46.285Z,72.50
2022-08-21T05:56:48.835Z,72.09
2022-08-21T05:57:51.060Z,71.70
2022-08-21T05:58:53.152Z,71.55
2022-08-21T05:59:55.357Z,71.02
2022-08-21T06:00:57.592Z,71.57
2022-08-21T06:02:05.423Z,71.78
2022-08-21T06:03:04.814Z,71.75
2022-08-21T06:04:07.213Z,70.96
2022-08-21T06:05:10.607Z,71.91
2022-08-21T06:06:13.561Z,72.65
2022-08-21T06:07:17.178Z,72.72
2022-08-21T06:08:21.786Z,71.87
2022-08-21T06:09:25.164Z,70.87
2022-08-21T06:10:28.199Z,70.88
2022-08-21T06:11:31.455Z,70.45
2022-08-21T06:12:34.442Z,70.29
2022-08-21T06:13:37.583Z,69.70
2022-08-21T06:14:40.989Z,70.04
2022-08-21T06:15:43.421Z,70.04
2022-08-21T06:16:46.351Z,70.11
2022-08-21T06:17:49.689Z,69.79
2022-08-21T06:18:51.929Z,69.90
2022-08-21T06:19:55.042Z,69.90
2022-08-21T06:20:57.442Z,69.34
2022-08-21T06:22:00.785Z,68.79
2022-08-21T06:23:03.285Z,68.42
2022-08-21T06:24:05.696Z,68.57
2022-08-21T06:25:09.873Z,68.65
2022-08-21T06:26:15.278Z,69.43
2022-08-21T06:27:22.424Z,68.66
2022-08-21T06:28:24.186Z,68.73
2022-08-21T06:29:26.383Z,68.65
2022-08-21T06:30:28.899Z,68.92
2022-08-21T06:31:30.952Z,68.54
2022-08-21T06:32:33.100Z,68.05
2022-08-21T06:33:36.526Z,68.22
2022-08-21T06:34:40.587Z,67.97
2022-08-21T06:35:43.811Z,67.82
2022-08-21T06:36:46.239Z,68.86
2022-08-21T06:37:49.411Z,69.67
2022-08-21T06:38:51.884Z,68.41
2022-08-21T06:39:55.649Z,68.47
2022-08-21T06:40:59.580Z,68.10
2022-08-21T06:42:03.374Z,68.17
2022-08-21T06:43:15.110Z,69.00
2022-08-21T06:44:19.463Z,68.42
2022-08-21T06:45:21.981Z,68.57
2022-08-21T06:46:28.293Z,69.40
2022-08-21T06:47:30.692Z,69.18
2022-08-21T06:48:34.039Z,69.13
2022-08-21T06:49:37.956Z,68.60
2022-08-21T06:50:43.158Z,67.75
2022-08-21T06:51:45.829Z,67.69
2022-08-21T06:52:47.990Z,69.50
2022-08-21T06:53:50.037Z,68.43
2022-08-21T06:54:54.169Z,67.49
2022-08-21T06:55:56.906Z,67.27
2022-08-21T06:57:01.020Z,67.34
2022-08-21T06:58:03.999Z,67.74
2022-08-21T06:59:06.197Z,67.87
2022-08-21T07:00:10.384Z,66.96
2022-08-21T07:01:12.868Z,67.28
2022-08-21T07:02:14.860Z,65.90
2022-08-21T07:03:29.832Z,67.76
2022-08-21T07:04:32.192Z,67.43
2022-08-21T07:05:34.452Z,67.66
2022-08-21T07:06:38.490Z,66.85
2022-08-21T07:07:41.330Z,67.08
2022-08-21T07:08:44.558Z,66.92
2022-08-21T07:09:46.686Z,67.16
2022-08-21T07:10:49.770Z,67.30
2022-08-21T07:11:54.666Z,66.91
2022-08-21T07:13:00.402Z,66.39
2022-08-21T07:14:01.446Z,66.65
2022-08-21T07:15:05.147Z,66.18
2022-08-21T07:16:07.600Z,65.61
2022-08-21T07:17:09.698Z,66.07
2022-08-21T07:18:13.665Z,65.75
2022-08-21T07:19:15.858Z,66.85
2022-08-21T07:20:18.580Z,66.34
2022-08-21T07:21:25.638Z,65.42
2022-08-21T07:22:25.761Z,65.10
2022-08-21T07:23:33.632Z,65.25
2022-08-21T07:24:35.842Z,65.43
2022-08-21T07:25:39.198Z,65.32
2022-08-21T07:26:42.976Z,65.40
2022-08-21T07:27:45.221Z,65.09
2022-08-21T07:28:49.821Z,65.70
2022-08-21T07:29:52.135Z,65.28
2022-08-21T07:30:58.109Z,65.33
2022-08-21T07:32:00.608Z,65.33
2022-08-21T07:33:02.813Z,64.46
2022-08-21T07:34:05.163Z,64.85
2022-08-21T07:35:07.789Z,64.71
2022-08-21T07:36:11.502Z,63.98
2022-08-21T07:37:13.643Z,63.68
2022-08-21T07:38:17.887Z,63.80
2022-08-21T07:39:20.166Z,64.02
2022-08-21T07:40:23.357Z,64.42
2022-08-21T07:41:28.273Z,64.93
2022-08-21T07:42:30.534Z,64.99
2022-08-21T07:43:33.676Z,64.44
2022-08-21T07:44:37.411Z,63.31
2022-08-21T07:45:39.461Z,63.75
2022-08-21T07:46:41.934Z,64.52
2022-08-21T07:47:45.223Z,63.28
2022-08-21T07:48:48.056Z,63.24
2022-08-21T07:49:50.187Z,63.39
2022-08-21T07:50:55.089Z,62.85
2022-08-21T07:51:59.004Z,62.61
2022-08-21T07:53:01.596Z,62.29
2022-08-21T07:54:05.910Z,61.58
2022-08-21T07:55:11.018Z,62.41
2022-08-21T07:56:13.832Z,61.79
2022-08-21T07:57:15.937Z,61.75
2022-08-21T07:58:20.423Z,62.20
2022-08-21T07:59:23.047Z,62.99
2022-08-21T08:00:28.771Z,62.69
2022-08-21T08:01:31.539Z,63.13
2022-08-21T08:02:33.894Z,64.50
2022-08-21T08:03:37.212Z,63.56
2022-08-21T08:04:50.918Z,63.43
2022-08-21T08:05:46.676Z,63.25
2022-08-21T08:06:51.158Z,63.59
2022-08-21T08:07:54.268Z,63.42
2022-08-21T08:08:59.354Z,62.30
2022-08-21T08:10:02.848Z,62.70
2022-08-21T08:11:05.768Z,62.95
2022-08-21T08:12:08.498Z,62.32
2022-08-21T08:13:10.986Z,63.64
2022-08-21T08:14:13.031Z,61.76
2022-08-21T08:15:18.798Z,61.62
2022-08-21T08:16:22.658Z,62.37
2022-08-21T08:17:25.151Z,62.13
2022-08-21T08:18:28.196Z,61.39
2022-08-21T08:19:30.372Z,61.04
2022-08-21T08:20:32.925Z,61.73
2022-08-21T08:21:35.609Z,62.78
2022-08-21T08:22:40.103Z,61.50
2022-08-21T08:23:42.750Z,61.18
2022-08-21T08:24:45.462Z,60.30
2022-08-21T08:25:47.591Z,61.46
2022-08-21T08:26:54.081Z,62.04
2022-08-21T08:27:55.403Z,61.43
2022-08-21T08:28:57.478Z,62.78
2022-08-21T08:29:59.675Z,60.68
2022-08-21T08:31:02.163Z,59.89
2022-08-21T08:32:06.376Z,60.77
2022-08-21T08:33:09.245Z,61.12
2022-08-21T08:34:23.475Z,59.65
2022-08-21T08:35:18.886Z,59.19
2022-08-21T08:36:27.310Z,59.99
2022-08-21T08:37:34.549Z,59.46
2022-08-21T08:38:39.183Z,61.31
2022-08-21T08:39:47.618Z,60.72
2022-08-21T08:41:11.594Z,60.06
2022-08-21T08:42:34.349Z,59.27
2022-08-21T08:43:21.810Z,59.09
2022-08-21T08:44:26.386Z,59.97
2022-08-21T08:45:34.897Z,60.75
2022-08-21T08:46:43.554Z,60.71
2022-08-21T08:47:49.164Z,60.30
2022-08-21T08:48:58.353Z,60.77
2022-08-21T08:50:07.205Z,59.05
2022-08-21T08:51:13.368Z,58.95
2022-08-21T08:53:44.685Z,59.52
2022-08-21T08:55:06.636Z,58.17
2022-08-21T08:56:11.275Z,58.81
2022-08-21T08:57:22.601Z,59.56
2022-08-21T08:58:34.329Z,59.10
2022-08-21T08:59:40.443Z,59.39
2022-08-21T09:00:46.240Z,56.58
2022-08-21T09:01:48.684Z,56.53
2022-08-21T09:02:54.620Z,56.34
2022-08-21T09:03:57.474Z,57.28
2022-08-21T09:05:01.326Z,58.09
2022-08-21T09:06:14.204Z,56.31
2022-08-21T09:07:31.831Z,56.02
2022-08-21T09:08:56.278Z,54.52
2022-08-21T09:10:04.998Z,56.36
2022-08-21T09:11:35.418Z,56.48
2022-08-21T09:12:53.250Z,56.71
2022-08-21T09:14:17.408Z,56.87
2022-08-21T09:15:24.221Z,54.88
2022-08-21T09:16:53.259Z,57.26
2022-08-21T09:18:08.194Z,56.94
2022-08-21T09:19:16.648Z,57.59
2022-08-21T09:20:31.680Z,55.66
2022-08-21T09:21:58.103Z,55.62
2022-08-21T09:23:32.733Z,56.44
2022-08-21T09:24:56.597Z,55.88
2022-08-21T09:26:14.727Z,55.39
2022-08-21T09:27:19.261Z,56.45
2022-08-21T09:28:23.461Z,56.57
2022-08-21T09:29:29.306Z,54.80
2022-08-21T09:30:33.838Z,55.40
2022-08-21T09:31:38.468Z,54.49
2022-08-21T09:32:40.852Z,54.92
2022-08-21T09:33:44.027Z,56.70
2022-08-21T09:35:11.416Z,56.48
2022-08-21T09:36:30.569Z,54.42
2022-08-21T09:37:36.197Z,55.20
2022-08-21T09:38:38.373Z,54.57
2022-08-21T09:39:42.624Z,54.87
2022-08-21T09:40:50.741Z,55.69
2022-08-21T09:42:02.739Z,55.61
2022-08-21T09:43:21.102Z,53.74
2022-08-21T09:44:29.477Z,54.15
2022-08-21T09:45:34.093Z,52.81
2022-08-21T09:46:37.700Z,53.40
2022-08-21T09:47:41.637Z,53.69
2022-08-21T09:48:48.000Z,54.00
2022-08-21T09:49:51.641Z,54.15
2022-08-21T09:50:56.678Z,52.91
2022-08-21T09:52:00.366Z,52.91
2022-08-21T09:53:03.061Z,52.13
2022-08-21T09:54:15.224Z,52.81
2022-08-21T09:55:21.046Z,52.81
2022-08-21T09:56:29.614Z,53.03
2022-08-21T09:57:33.679Z,55.27
2022-08-21T09:58:38.386Z,53.79
2022-08-21T09:59:41.269Z,55.61
2022-08-21T10:00:44.551Z,52.95
2022-08-21T10:01:51.360Z,54.43
2022-08-21T10:02:53.632Z,53.43
2022-08-21T10:04:10.375Z,53.39
2022-08-21T10:05:22.024Z,53.58
2022-08-21T10:06:27.905Z,54.34
2022-08-21T10:07:32.759Z,52.05
2022-08-21T10:08:38.568Z,53.06
2022-08-21T10:09:41.984Z,52.06
2022-08-21T10:10:46.598Z,52.15
2022-08-21T10:12:01.845Z,51.94
2022-08-21T10:13:20.584Z,51.82
2022-08-21T10:14:40.025Z,51.98
2022-08-21T10:15:56.529Z,52.14
2022-08-21T10:17:17.632Z,51.75
2022-08-21T10:18:32.280Z,51.70
2022-08-21T10:19:52.551Z,51.25
2022-08-21T10:21:01.381Z,52.18
2022-08-21T10:22:13.981Z,52.74
2022-08-21T10:23:40.611Z,51.45
2022-08-21T10:24:59.070Z,51.78
2022-08-21T10:26:22.814Z,52.14
2022-08-21T10:27:37.745Z,50.25
2022-08-21T10:28:44.027Z,50.31
2022-08-21T10:30:09.105Z,50.20
2022-08-21T10:31:20.598Z,49.71
2022-08-21T10:32:48.600Z,50.48
2022-08-21T10:34:11.185Z,49.81
2022-08-21T10:35:27.717Z,50.61
2022-08-21T10:36:37.736Z,50.74
2022-08-21T10:38:00.266Z,49.06
2022-08-21T10:39:26.436Z,50.21
2022-08-21T10:40:36.514Z,48.28
2022-08-21T10:41:48.637Z,50.30
2022-08-21T10:43:06.744Z,50.35
2022-08-21T10:44:26.224Z,49.03
2022-08-21T10:45:50.017Z,48.98
2022-08-21T10:47:06.088Z,49.43
2022-08-21T10:48:16.640Z,51.30
2022-08-21T10:49:31.985Z,49.42
2022-08-21T10:51:00.605Z,49.51
2022-08-21T10:52:06.395Z,49.84
2022-08-21T10:53:29.716Z,50.54
2022-08-21T10:54:51.985Z,48.79
2022-08-21T10:56:13.342Z,48.98
2022-08-21T10:57:26.068Z,48.96
2022-08-21T10:58:27.135Z,48.49
2022-08-21T10:59:45.075Z,48.71
2022-08-21T11:00:50.826Z,48.13
2022-08-21T11:02:02.454Z,48.61
2022-08-21T11:03:29.006Z,48.92
2022-08-21T11:04:49.388Z,48.96
2022-08-21T11:05:53.858Z,48.54
2022-08-21T11:07:02.497Z,47.95
2022-08-21T11:08:16.153Z,47.49
2022-08-21T11:09:23.313Z,46.30
2022-08-21T11:10:35.199Z,46.89
2022-08-21T11:11:47.587Z,46.68
2022-08-21T11:14:29.887Z,46.93
2022-08-21T11:15:41.882Z,46.54
2022-08-21T11:16:51.315Z,47.70
2022-08-21T11:18:06.378Z,46.28
2022-08-21T11:19:18.469Z,44.87
2022-08-21T11:20:25.747Z,45.27
2022-08-21T11:21:44.282Z,45.10
2022-08-21T11:22:55.545Z,45.26
2022-08-21T11:24:07.472Z,45.12
2022-08-21T11:25:37.042Z,45.62
2022-08-21T11:27:00.492Z,46.34
2022-08-21T11:28:07.367Z,45.03
2022-08-21T11:29:14.026Z,45.24
2022-08-21T11:30:17.203Z,45.57
2022-08-21T11:31:35.116Z,46.21
2022-08-21T11:32:43.847Z,45.91
2022-08-21T11:33:49.687Z,44.55
2022-08-21T11:34:56.452Z,44.08
2022-08-21T11:36:06.809Z,44.00
2022-08-21T11:37:32.230Z,43.95
2022-08-21T11:38:38.581Z,44.92
2022-08-21T11:39:54.029Z,44.62
2022-08-21T11:41:24.963Z,45.01
2022-08-21T11:42:54.055Z,43.09
2022-08-21T11:44:30.827Z,43.95
2022-08-21T11:45:52.350Z,44.86
2022-08-21T11:47:01.409Z,44.11
2022-08-21T11:48:28.591Z,44.48
2022-08-21T11:49:49.596Z,43.51
2022-08-21T11:50:53.089Z,43.00
2022-08-21T11:52:21.763Z,43.34
2022-08-21T11:53:36.210Z,42.75
2022-08-21T11:54:47.763Z,43.07
2022-08-21T11:55:59.489Z,41.47
2022-08-21T11:57:23.742Z,42.12
2022-08-21T11:58:35.349Z,42.68
2022-08-21T11:59:41.083Z,43.71
2022-08-21T12:00:56.178Z,42.46
2022-08-21T12:01:59.378Z,42.92
2022-08-21T12:03:11.801Z,41.70
2022-08-21T12:04:22.065Z,41.95
2022-08-21T12:05:36.391Z,42.25
2022-08-21T12:06:41.534Z,42.81
2022-08-21T12:07:45.766Z,42.79
2022-08-21T12:08:51.797Z,41.90
2022-08-21T12:09:56.329Z,41.44
2022-08-21T12:11:12.617Z,42.11
2022-08-21T12:12:33.574Z,41.79
2022-08-21T12:13:42.315Z,41.60
2022-08-21T12:14:48.643Z,40.22
2022-08-21T12:15:50.966Z,41.26
2022-08-21T12:16:56.705Z,41.23
2022-08-21T12:18:23.722Z,40.03
2022-08-21T12:19:29.311Z,41.29
2022-08-21T12:20:50.792Z,41.46
2022-08-21T12:22:02.275Z,41.87
2022-08-21T12:23:13.125Z,41.22
2022-08-21T12:24:18.776Z,41.56
2022-08-21T12:25:23.003Z,41.23
2022-08-21T12:26:29.705Z,39.69
2022-08-21T12:27:45.554Z,40.69
2022-08-21T12:28:48.718Z,41.57
2022-08-21T12:29:54.480Z,40.49
2022-08-21T12:30:58.281Z,39.98
2022-08-21T12:32:19.470Z,39.22
2022-08-21T12:33:31.681Z,40.32
2022-08-21T12:34:52.956Z,39.27
2022-08-21T12:36:14.783Z,40.09
2022-08-21T12:37:32.446Z,40.28
2022-08-21T12:38:53.370Z,41.11
2022-08-21T12:39:59.529Z,41.39
2022-08-21T12:41:05.553Z,40.20
2022-08-21T12:42:23.758Z,39.92
2022-08-21T12:43:38.803Z,39.91
2022-08-21T12:44:47.522Z,39.71
2022-08-21T12:45:52.430Z,38.76
2022-08-21T12:47:04.725Z,38.91
2022-08-21T12:48:28.757Z,38.07
2022-08-21T12:49:39.428Z,38.87
2022-08-21T12:50:50.824Z,38.84
2022-08-21T12:52:11.553Z,39.21
2022-08-21T12:53:32.461Z,39.28
2022-08-21T12:54:41.125Z,37.56
2022-08-21T12:55:45.345Z,38.03
2022-08-21T12:56:51.498Z,38.20
2022-08-21T12:57:54.907Z,37.93
2022-08-21T12:59:03.886Z,38.44
2022-08-21T13:00:08.905Z,37.80
2022-08-21T13:01:27.095Z,38.01
2022-08-21T13:02:35.677Z,38.18
2022-08-21T13:03:39.078Z,38.50
2022-08-21T13:04:42.180Z,38.64
2022-08-21T13:05:47.562Z,38.47
2022-08-21T13:06:53.492Z,38.01
2022-08-21T13:07:56.709Z,36.93
2022-08-21T13:09:02.333Z,37.52
2022-08-21T13:10:09.429Z,37.01
2022-08-21T13:11:15.610Z,37.09
2022-08-21T13:12:21.802Z,38.10
2022-08-21T13:13:28.434Z,37.41
2022-08-21T13:14:47.492Z,37.66
2022-08-21T13:15:54.164Z,37.92
2022-08-21T13:16:59.274Z,37.21
2022-08-21T13:18:03.566Z,36.58
2022-08-21T13:19:07.918Z,36.34
2022-08-21T13:20:23.998Z,36.79
2022-08-21T13:21:36.090Z,37.26
2022-08-21T13:22:43.739Z,36.78
2022-08-21T13:23:49.235Z,35.94
2022-08-21T13:24:51.251Z,37.55
2022-08-21T13:25:55.151Z,37.59
2022-08-21T13:26:58.042Z,37.51
2022-08-21T13:28:03.705Z,36.75
2022-08-21T13:29:13.441Z,37.96
2022-08-21T13:30:22.839Z,37.17
2022-08-21T13:31:31.297Z,36.49
2022-08-21T13:32:36.397Z,36.43
2022-08-21T13:33:41.317Z,35.79
2022-08-21T13:34:43.754Z,35.58
2022-08-21T13:35:59.435Z,35.30
2022-08-21T13:37:05.288Z,35.46
2022-08-21T13:38:08.474Z,35.18
2022-08-21T13:39:14.114Z,35.57
2022-08-21T13:40:27.305Z,35.20
2022-08-21T13:41:32.713Z,34.86
2022-08-21T13:42:35.318Z,34.57
2022-08-21T13:43:37.623Z,34.41
2022-08-21T13:44:45.877Z,34.89
2022-08-21T13:45:51.169Z,34.11
2022-08-21T13:46:55.509Z,33.91
2022-08-21T13:48:06.092Z,33.86
2022-08-21T13:49:07.343Z,34.97
2022-08-21T13:50:13.650Z,33.84
2022-08-21T13:51:16.528Z,34.50
2022-08-21T13:52:24.960Z,33.81
2022-08-21T13:53:46.043Z,34.04
2022-08-21T13:55:01.097Z,34.41
2022-08-21T13:56:04.720Z,33.64
2022-08-21T13:57:30.390Z,34.15
2022-08-21T13:58:36.695Z,34.60
2022-08-21T13:59:38.673Z,33.52
2022-08-21T14:00:48.514Z,32.89
2022-08-21T14:01:54.639Z,33.12
2022-08-21T14:03:09.911Z,34.15
2022-08-21T14:04:24.694Z,34.63
2022-08-21T14:05:30.955Z,33.03
2022-08-21T14:06:37.972Z,33.08
2022-08-21T14:07:41.421Z,33.50
2022-08-21T14:08:49.931Z,32.72
2022-08-21T14:09:53.514Z,33.13
2022-08-21T14:10:57.592Z,33.40
2022-08-21T14:12:03.365Z,33.49
2022-08-21T14:13:07.056Z,33.49
2022-08-21T14:14:19.897Z,33.10
2022-08-21T14:15:26.644Z,33.54
2022-08-21T14:16:42.320Z,33.44
2022-08-21T14:17:45.942Z,33.78
2022-08-21T14:20:09.134Z,33.80
2022-08-21T14:21:12.845Z,33.46